createdAt,value
2018-01-29T00:00:15.883Z,45.97
2018-01-29T00:02:08.743Z,45.87
2018-01-29T00:03:08.646Z,45.97
2018-01-29T00:05:01.474Z,45.97
2018-01-29T00:06:01.393Z,45.87
2018-01-29T00:07:54.247Z,46.16
2018-01-29T00:08:54.160Z,45.87
2018-01-29T00:10:46.967Z,45.87
2018-01-29T00:11:46.888Z,46.36
2018-01-29T00:13:39.737Z,46.26
2018-01-29T00:14:39.646Z,46.16
2018-01-29T00:16:32.473Z,46.36
2018-01-29T00:17:32.409Z,46.26
2018-01-29T00:19:25.259Z,46.26
2018-01-29T00:20:25.140Z,46.26
2018-01-29T00:22:17.970Z,46.26
2018-01-29T00:23:17.899Z,46.36
2018-01-29T00:25:10.744Z,46.36
2018-01-29T00:26:10.639Z,46.36
2018-01-29T00:28:03.462Z,45.78
2018-01-29T00:29:03.389Z,45.97
2018-01-29T00:30:56.234Z,45.97
2018-01-29T00:31:56.131Z,45.87
2018-01-29T00:33:48.969Z,45.87
2018-01-29T00:34:48.881Z,46.16
2018-01-29T00:36:42.256Z,46.06
2018-01-29T00:37:42.143Z,46.16
2018-01-29T00:39:34.974Z,45.97
2018-01-29T00:40:34.896Z,45.87
2018-01-29T00:42:27.761Z,45.97
2018-01-29T00:43:27.637Z,45.97
2018-01-29T00:45:20.472Z,46.16
2018-01-29T00:46:20.385Z,46.16
2018-01-29T00:48:13.245Z,45.87
2018-01-29T00:49:13.143Z,46.06
2018-01-29T00:51:06.804Z,46.16
2018-01-29T00:52:06.711Z,45.78
2018-01-29T00:53:59.586Z,45.97
2018-01-29T00:54:59.453Z,46.16
2018-01-29T00:56:52.320Z,45.97
2018-01-29T00:57:52.202Z,45.87
2018-01-29T00:59:45.094Z,46.06
2018-01-29T01:00:44.965Z,45.87
2018-01-29T01:02:37.793Z,46.06
2018-01-29T01:03:37.709Z,45.97
2018-01-29T01:05:30.566Z,46.16
2018-01-29T01:06:30.454Z,46.64
2018-01-29T01:08:23.297Z,46.64
2018-01-29T01:09:23.211Z,46.55
2018-01-29T01:11:16.063Z,46.16
2018-01-29T01:12:15.961Z,46.06
2018-01-29T01:14:08.793Z,46.16
2018-01-29T01:15:08.705Z,46.36
2018-01-29T01:17:01.566Z,46.64
2018-01-29T01:18:01.462Z,46.45
2018-01-29T01:19:54.290Z,46.55
2018-01-29T01:20:54.210Z,46.55
2018-01-29T01:22:47.056Z,46.64
2018-01-29T01:23:46.955Z,46.74
2018-01-29T01:25:39.789Z,46.64
2018-01-29T01:26:39.707Z,46.26
2018-01-29T01:28:32.563Z,46.14
2018-01-29T01:29:32.459Z,46.64
2018-01-29T01:31:25.290Z,46.64
2018-01-29T01:32:25.206Z,46.64
2018-01-29T01:34:18.058Z,46.36
2018-01-29T01:35:17.954Z,46.74
2018-01-29T01:37:10.789Z,46.55
2018-01-29T01:38:10.706Z,46.64
2018-01-29T01:40:03.560Z,46.55
2018-01-29T01:41:03.457Z,46.55
2018-01-29T01:42:56.284Z,46.55
2018-01-29T01:43:56.246Z,46.45
2018-01-29T01:45:49.051Z,46.74
2018-01-29T01:46:48.964Z,46.16
2018-01-29T01:48:42.429Z,45.97
2018-01-29T01:49:42.318Z,46.16
2018-01-29T01:51:35.182Z,46.06
2018-01-29T01:52:35.074Z,46.36
2018-01-29T01:54:27.907Z,46.16
2018-01-29T01:55:27.820Z,46.16
2018-01-29T01:57:22.212Z,46.06
2018-01-29T01:58:22.103Z,46.45
2018-01-29T02:00:15.445Z,46.64
2018-01-29T02:01:15.360Z,46.64
2018-01-29T02:03:08.236Z,45.87
2018-01-29T02:04:08.122Z,45.87
2018-01-29T02:06:01.055Z,45.87
2018-01-29T02:07:00.963Z,46.16
2018-01-29T02:08:54.440Z,45.87
2018-01-29T02:09:54.337Z,45.97
2018-01-29T02:11:52.309Z,46.36
2018-01-29T02:12:52.198Z,46.74
2018-01-29T02:14:46.584Z,46.55
2018-01-29T02:15:46.496Z,46.55
2018-01-29T02:17:39.311Z,46.16
2018-01-29T02:18:39.227Z,46.16
2018-01-29T02:20:32.097Z,46.64
2018-01-29T02:21:31.991Z,46.45
2018-01-29T02:23:24.820Z,46.64
2018-01-29T02:24:24.741Z,46.74
2018-01-29T02:26:17.601Z,46.45
2018-01-29T02:27:17.496Z,46.45
2018-01-29T02:29:10.316Z,46.74
2018-01-29T02:30:10.266Z,46.45
2018-01-29T02:32:03.216Z,46.64
2018-01-29T02:33:03.106Z,46.64
2018-01-29T02:34:56.431Z,46.55
2018-01-29T02:35:56.336Z,46.55
2018-01-29T02:37:50.737Z,46.64
2018-01-29T02:38:50.623Z,46.64
2018-01-29T02:40:43.462Z,46.45
2018-01-29T02:41:43.384Z,46.55
2018-01-29T02:43:36.260Z,46.64
2018-01-29T02:44:36.130Z,46.45
2018-01-29T02:46:28.967Z,46.45
2018-01-29T02:47:28.875Z,46.74
2018-01-29T02:49:21.746Z,46.74
2018-01-29T02:50:21.624Z,46.55
2018-01-29T02:52:14.467Z,46.55
2018-01-29T02:53:14.380Z,46.45
2018-01-29T02:55:07.240Z,46.64
2018-01-29T02:56:07.128Z,46.55
2018-01-29T02:57:59.970Z,46.45
2018-01-29T02:58:59.877Z,46.55
2018-01-29T03:00:52.747Z,46.45
2018-01-29T03:01:52.638Z,46.55
2018-01-29T03:03:45.480Z,46.45
2018-01-29T03:04:45.436Z,46.64
2018-01-29T03:06:38.236Z,46.55
2018-01-29T03:07:38.125Z,46.45
2018-01-29T03:09:31.076Z,46.64
2018-01-29T03:10:30.980Z,46.64
2018-01-29T03:12:24.350Z,46.45
2018-01-29T03:13:24.232Z,46.36
2018-01-29T03:15:17.076Z,46.45
2018-01-29T03:16:16.990Z,46.55
2018-01-29T03:18:09.948Z,46.55
2018-01-29T03:19:09.848Z,46.55
2018-01-29T03:21:02.683Z,46.55
2018-01-29T03:22:02.590Z,46.45
2018-01-29T03:23:55.467Z,46.45
2018-01-29T03:24:55.332Z,46.55
2018-01-29T03:26:48.183Z,46.55
2018-01-29T03:27:48.083Z,46.45
2018-01-29T03:29:40.960Z,46.55
2018-01-29T03:30:40.843Z,46.55
2018-01-29T03:32:33.708Z,46.55
2018-01-29T03:33:33.585Z,46.55
2018-01-29T03:35:26.443Z,46.45
2018-01-29T03:36:26.346Z,46.45
2018-01-29T03:38:19.199Z,46.55
2018-01-29T03:39:19.098Z,46.64
2018-01-29T03:41:12.070Z,46.45
2018-01-29T03:42:11.943Z,46.55
2018-01-29T03:44:04.767Z,46.45
2018-01-29T03:45:04.705Z,46.55
2018-01-29T03:46:57.554Z,46.45
2018-01-29T03:47:57.438Z,46.45
2018-01-29T03:49:50.268Z,46.45
2018-01-29T03:50:50.195Z,46.64
2018-01-29T03:52:43.185Z,46.26
2018-01-29T03:53:43.044Z,46.74
2018-01-29T03:55:36.014Z,46.16
2018-01-29T03:56:35.902Z,46.45
2018-01-29T03:58:28.752Z,46.26
2018-01-29T03:59:28.642Z,46.26
2018-01-29T04:01:21.512Z,46.55
2018-01-29T04:02:21.406Z,46.64
2018-01-29T04:04:14.250Z,46.45
2018-01-29T04:05:14.137Z,46.45
2018-01-29T04:07:07.087Z,46.45
2018-01-29T04:08:07.002Z,46.64
2018-01-29T04:09:59.954Z,46.36
2018-01-29T04:10:59.840Z,46.45
2018-01-29T04:12:52.800Z,46.45
2018-01-29T04:13:52.690Z,46.45
2018-01-29T04:15:45.658Z,46.45
2018-01-29T04:16:45.564Z,46.45
2018-01-29T04:18:38.489Z,46.55
2018-01-29T04:19:38.427Z,46.45
2018-01-29T04:21:31.358Z,46.36
2018-01-29T04:22:31.295Z,46.45
2018-01-29T04:24:24.087Z,46.45
2018-01-29T04:25:24.058Z,46.64
2018-01-29T04:27:17.398Z,46.55
2018-01-29T04:28:17.263Z,46.55
2018-01-29T04:30:10.091Z,46.55
2018-01-29T04:31:10.012Z,46.55
2018-01-29T04:33:02.976Z,47.70
2018-01-29T04:34:02.871Z,47.51
2018-01-29T04:35:55.813Z,49.15
2018-01-29T04:36:55.845Z,49.05
2018-01-29T04:38:48.690Z,48.95
2018-01-29T04:39:48.579Z,48.95
2018-01-29T04:41:41.531Z,49.33
2018-01-29T04:42:41.412Z,48.69
2018-01-29T04:44:34.386Z,48.49
2018-01-29T04:45:34.277Z,48.21
2018-01-29T04:47:27.220Z,48.11
2018-01-29T04:48:27.116Z,47.92
2018-01-29T04:50:20.084Z,47.92
2018-01-29T04:51:19.977Z,47.92
2018-01-29T04:53:12.919Z,47.82
2018-01-29T04:54:12.818Z,47.72
2018-01-29T04:56:05.819Z,47.72
2018-01-29T04:57:05.699Z,48.02
2018-01-29T04:58:58.619Z,47.82
2018-01-29T04:59:58.537Z,47.82
2018-01-29T05:01:51.904Z,47.92
2018-01-29T05:02:51.807Z,47.92
2018-01-29T05:04:44.734Z,47.92
2018-01-29T05:05:44.648Z,48.02
2018-01-29T05:07:37.632Z,48.69
2018-01-29T05:08:37.502Z,49.27
2018-01-29T05:10:30.437Z,49.15
2018-01-29T05:11:30.349Z,48.85
2018-01-29T05:13:23.306Z,48.59
2018-01-29T05:14:23.211Z,48.79
2018-01-29T05:16:16.137Z,48.49
2018-01-29T05:17:16.083Z,48.21
2018-01-29T05:19:09.019Z,48.30
2018-01-29T05:20:09.834Z,48.21
2018-01-29T05:22:02.680Z,48.30
2018-01-29T05:23:01.758Z,48.02
2018-01-29T05:24:54.727Z,47.92
2018-01-29T05:25:54.617Z,48.02
2018-01-29T05:27:47.588Z,48.02
2018-01-29T05:28:47.465Z,47.92
2018-01-29T05:30:40.412Z,47.92
2018-01-29T05:31:40.312Z,47.82
2018-01-29T05:33:33.775Z,47.92
2018-01-29T05:34:33.681Z,47.72
2018-01-29T05:36:26.628Z,47.82
2018-01-29T05:37:26.532Z,47.72
2018-01-29T05:39:19.494Z,47.82
2018-01-29T05:40:19.373Z,47.72
2018-01-29T05:42:12.332Z,47.82
2018-01-29T05:43:12.236Z,47.72
2018-01-29T05:45:05.168Z,48.02
2018-01-29T05:46:05.080Z,47.92
2018-01-29T05:47:58.044Z,47.92
2018-01-29T05:48:57.936Z,47.92
2018-01-29T05:50:50.869Z,47.92
2018-01-29T05:51:50.799Z,47.63
2018-01-29T05:53:43.746Z,47.63
2018-01-29T05:54:43.647Z,47.72
2018-01-29T05:56:36.574Z,47.63
2018-01-29T05:57:36.481Z,47.53
2018-01-29T05:59:29.466Z,47.72
2018-01-29T06:00:29.347Z,47.82
2018-01-29T06:02:22.385Z,47.82
2018-01-29T06:03:22.306Z,47.15
2018-01-29T06:05:15.253Z,47.36
2018-01-29T06:06:15.152Z,47.36
2018-01-29T06:08:08.084Z,47.17
2018-01-29T06:09:08.008Z,47.17
2018-01-29T06:11:00.981Z,47.08
2018-01-29T06:12:00.857Z,46.98
2018-01-29T06:13:53.793Z,47.17
2018-01-29T06:14:53.707Z,46.98
2018-01-29T06:16:46.671Z,46.95
2018-01-29T06:17:46.557Z,46.86
2018-01-29T06:19:39.494Z,46.88
2018-01-29T06:20:39.409Z,46.88
2018-01-29T06:22:32.374Z,46.86
2018-01-29T06:23:32.262Z,47.08
2018-01-29T06:25:25.192Z,47.08
2018-01-29T06:26:25.115Z,46.88
2018-01-29T06:28:18.064Z,46.86
2018-01-29T06:29:17.976Z,46.77
2018-01-29T06:31:11.329Z,47.08
2018-01-29T06:32:11.225Z,46.88
2018-01-29T06:34:04.192Z,46.98
2018-01-29T06:35:04.078Z,46.77
2018-01-29T06:36:57.045Z,46.78
2018-01-29T06:37:56.930Z,46.67
2018-01-29T06:39:49.893Z,46.57
2018-01-29T06:40:49.782Z,46.77
2018-01-29T06:42:42.724Z,46.57
2018-01-29T06:43:42.636Z,46.77
2018-01-29T06:45:35.589Z,46.77
2018-01-29T06:46:35.509Z,46.95
2018-01-29T06:48:28.446Z,46.86
2018-01-29T06:49:28.351Z,47.05
2018-01-29T06:51:21.302Z,46.86
2018-01-29T06:52:21.190Z,46.86
2018-01-29T06:54:14.128Z,46.77
2018-01-29T06:55:14.034Z,46.95
2018-01-29T06:57:07.019Z,46.86
2018-01-29T06:58:06.891Z,46.95
2018-01-29T06:59:59.837Z,46.95
2018-01-29T07:00:59.755Z,46.95
2018-01-29T07:02:52.696Z,46.86
2018-01-29T07:03:52.614Z,46.86
2018-01-29T07:05:45.561Z,46.86
2018-01-29T07:06:45.451Z,46.86
2018-01-29T07:08:38.451Z,46.86
2018-01-29T07:09:38.369Z,46.86
2018-01-29T07:11:31.344Z,47.05
2018-01-29T07:12:31.269Z,46.95
2018-01-29T07:14:24.222Z,46.95
2018-01-29T07:15:24.103Z,46.86
2018-01-29T07:17:17.057Z,46.86
2018-01-29T07:18:16.952Z,46.86
2018-01-29T07:20:09.929Z,47.05
2018-01-29T07:21:09.837Z,46.95
2018-01-29T07:23:03.278Z,46.74
2018-01-29T07:24:03.172Z,46.93
2018-01-29T07:25:56.122Z,46.84
2018-01-29T07:26:56.026Z,47.13
2018-01-29T07:28:48.980Z,46.93
2018-01-29T07:29:48.882Z,46.93
2018-01-29T07:31:41.837Z,47.03
2018-01-29T07:32:41.730Z,47.31
2018-01-29T07:34:34.670Z,47.13
2018-01-29T07:35:34.575Z,46.74
2018-01-29T07:37:27.437Z,47.22
2018-01-29T07:38:27.338Z,47.03
2018-01-29T07:40:20.267Z,46.64
2018-01-29T07:41:20.188Z,47.13
2018-01-29T07:43:13.147Z,47.13
2018-01-29T07:44:13.051Z,46.74
2018-01-29T07:46:05.981Z,47.22
2018-01-29T07:47:05.900Z,47.31
2018-01-29T07:48:58.856Z,47.03
2018-01-29T07:49:58.747Z,47.03
2018-01-29T07:51:51.688Z,47.13
2018-01-29T07:52:51.610Z,47.13
2018-01-29T07:54:44.569Z,47.03
2018-01-29T07:55:44.445Z,47.13
2018-01-29T07:57:37.386Z,47.13
2018-01-29T07:58:37.311Z,47.22
2018-01-29T08:00:30.254Z,47.03
2018-01-29T08:01:30.151Z,47.22
2018-01-29T08:03:23.087Z,46.93
2018-01-29T08:04:23.018Z,46.84
2018-01-29T08:06:15.964Z,47.03
2018-01-29T08:07:15.854Z,46.74
2018-01-29T08:09:08.791Z,46.93
2018-01-29T08:10:08.708Z,46.84
2018-01-29T08:12:01.668Z,46.77
2018-01-29T08:13:01.562Z,46.95
2018-01-29T08:14:54.511Z,46.77
2018-01-29T08:15:54.411Z,46.77
2018-01-29T08:17:47.383Z,46.77
2018-01-29T08:18:47.258Z,46.47
2018-01-29T08:20:40.208Z,46.67
2018-01-29T08:21:40.117Z,46.67
2018-01-29T08:23:32.977Z,46.19
2018-01-29T08:24:32.871Z,46.28
2018-01-29T08:26:26.626Z,46.57
2018-01-29T08:27:26.542Z,46.57
2018-01-29T08:29:19.382Z,46.57
2018-01-29T08:30:19.288Z,46.57
2018-01-29T08:32:12.122Z,46.57
2018-01-29T08:33:12.035Z,46.57
2018-01-29T08:35:05.433Z,46.67
2018-01-29T08:36:05.295Z,46.57
2018-01-29T08:37:58.134Z,46.47
2018-01-29T08:38:58.046Z,46.57
2018-01-29T08:40:50.918Z,46.67
2018-01-29T08:41:50.800Z,46.67
2018-01-29T08:43:43.741Z,46.67
2018-01-29T08:44:43.645Z,46.57
2018-01-29T08:46:36.508Z,46.28
2018-01-29T08:47:36.395Z,46.77
2018-01-29T08:49:29.246Z,46.09
2018-01-29T08:50:29.150Z,46.67
2018-01-29T08:52:22.015Z,46.19
2018-01-29T08:53:21.907Z,46.09
2018-01-29T08:55:14.765Z,45.90
2018-01-29T08:56:14.646Z,46.09
2018-01-29T08:58:07.546Z,45.90
2018-01-29T08:59:07.409Z,46.67
2018-01-29T09:01:00.240Z,46.19
2018-01-29T09:02:00.150Z,46.19
2018-01-29T09:03:53.025Z,46.09
2018-01-29T09:04:52.897Z,45.90
2018-01-29T09:06:45.738Z,45.99
2018-01-29T09:07:45.651Z,46.09
2018-01-29T09:09:38.601Z,46.28
2018-01-29T09:10:38.543Z,46.28
2018-01-29T09:12:31.347Z,45.90
2018-01-29T09:13:31.253Z,46.19
2018-01-29T09:15:24.103Z,46.09
2018-01-29T09:16:24.001Z,45.90
2018-01-29T09:18:16.838Z,46.09
2018-01-29T09:19:16.755Z,46.09
2018-01-29T09:21:09.603Z,45.90
2018-01-29T09:22:09.498Z,46.09
2018-01-29T09:24:02.345Z,46.09
2018-01-29T09:25:02.249Z,46.09
2018-01-29T09:26:55.101Z,45.99
2018-01-29T09:27:55.006Z,45.90
2018-01-29T09:29:47.852Z,46.28
2018-01-29T09:30:47.749Z,46.28
2018-01-29T09:32:40.608Z,46.38
2018-01-29T09:33:40.500Z,46.57
2018-01-29T09:35:33.355Z,46.47
2018-01-29T09:36:33.252Z,46.57
2018-01-29T09:38:26.104Z,46.47
2018-01-29T09:39:26.002Z,46.47
2018-01-29T09:41:18.854Z,46.38
2018-01-29T09:42:18.750Z,46.47
2018-01-29T09:44:11.607Z,46.38
2018-01-29T09:45:11.499Z,46.38
2018-01-29T09:47:04.338Z,46.19
2018-01-29T09:48:04.246Z,46.47
2018-01-29T09:49:57.107Z,45.99
2018-01-29T09:50:56.994Z,45.90
2018-01-29T09:52:49.832Z,45.70
2018-01-29T09:53:49.742Z,45.61
2018-01-29T09:55:42.609Z,45.80
2018-01-29T09:56:42.498Z,45.70
2018-01-29T09:58:35.831Z,45.61
2018-01-29T09:59:35.750Z,45.70
2018-01-29T10:01:28.598Z,45.61
2018-01-29T10:02:28.500Z,45.70
2018-01-29T10:04:21.344Z,45.51
2018-01-29T10:05:21.248Z,45.90
2018-01-29T10:07:14.105Z,45.61
2018-01-29T10:08:14.000Z,45.90
2018-01-29T10:10:06.828Z,45.80
2018-01-29T10:11:06.758Z,45.80
2018-01-29T10:12:59.613Z,45.80
2018-01-29T10:13:59.515Z,45.80
2018-01-29T10:15:52.329Z,45.70
2018-01-29T10:16:52.258Z,45.61
2018-01-29T10:18:45.102Z,45.51
2018-01-29T10:19:44.994Z,45.61
2018-01-29T10:21:37.838Z,45.13
2018-01-29T10:22:37.763Z,45.22
2018-01-29T10:24:30.612Z,45.32
2018-01-29T10:25:30.572Z,45.32
2018-01-29T10:27:23.332Z,45.42
2018-01-29T10:28:23.247Z,45.32
2018-01-29T10:30:16.128Z,45.22
2018-01-29T10:31:16.011Z,45.32
2018-01-29T10:33:08.828Z,45.22
2018-01-29T10:34:08.741Z,45.03
2018-01-29T10:36:02.098Z,45.13
2018-01-29T10:37:02.010Z,45.13
2018-01-29T10:38:54.832Z,45.42
2018-01-29T10:39:54.761Z,45.22
2018-01-29T10:41:47.618Z,45.22
2018-01-29T10:42:47.506Z,45.22
2018-01-29T10:44:40.337Z,45.32
2018-01-29T10:45:40.265Z,45.13
2018-01-29T10:47:33.121Z,45.32
2018-01-29T10:48:33.002Z,45.22
2018-01-29T10:50:25.848Z,45.22
2018-01-29T10:51:25.759Z,45.13
2018-01-29T10:53:18.628Z,45.22
2018-01-29T10:54:18.495Z,45.22
2018-01-29T10:56:11.340Z,45.22
2018-01-29T10:57:11.250Z,45.22
2018-01-29T10:59:04.122Z,45.42
2018-01-29T11:00:04.002Z,45.22
2018-01-29T11:01:57.362Z,45.13
2018-01-29T11:02:57.261Z,45.13
2018-01-29T11:04:50.141Z,45.22
2018-01-29T11:05:50.010Z,45.13
2018-01-29T11:07:42.850Z,45.22
2018-01-29T11:08:42.760Z,45.22
2018-01-29T11:10:35.621Z,45.22
2018-01-29T11:11:35.513Z,45.22
2018-01-29T11:13:28.378Z,45.13
2018-01-29T11:14:28.256Z,45.32
2018-01-29T11:16:21.124Z,45.32
2018-01-29T11:17:21.008Z,45.22
2018-01-29T11:19:13.841Z,45.13
2018-01-29T11:20:13.756Z,45.22
2018-01-29T11:22:06.611Z,45.32
2018-01-29T11:23:06.509Z,45.22
2018-01-29T11:24:59.358Z,45.22
2018-01-29T11:25:59.263Z,45.13
2018-01-29T11:27:52.103Z,45.42
2018-01-29T11:28:52.015Z,45.32
2018-01-29T11:30:44.836Z,45.42
2018-01-29T11:31:44.792Z,45.22
2018-01-29T11:33:37.609Z,45.22
2018-01-29T11:34:37.506Z,45.42
2018-01-29T11:36:30.848Z,45.42
2018-01-29T11:37:30.768Z,45.51
2018-01-29T11:39:26.616Z,45.22
2018-01-29T11:40:26.488Z,45.42
2018-01-29T11:42:22.393Z,45.63
2018-01-29T11:43:22.324Z,45.32
2018-01-29T11:45:15.171Z,45.44
2018-01-29T11:46:15.056Z,45.22
2018-01-29T11:48:12.907Z,45.53
2018-01-29T11:49:12.839Z,45.25
2018-01-29T11:51:06.916Z,45.25
2018-01-29T11:52:06.802Z,45.15
2018-01-29T11:53:59.637Z,45.22
2018-01-29T11:54:59.555Z,45.25
2018-01-29T11:56:52.937Z,45.51
2018-01-29T11:57:52.526Z,45.22
2018-01-29T11:59:45.344Z,45.34
2018-01-29T12:00:45.278Z,45.25
2018-01-29T12:02:38.116Z,45.34
2018-01-29T12:03:38.026Z,45.34
2018-01-29T12:05:32.375Z,45.25
2018-01-29T12:06:32.285Z,45.25
2018-01-29T12:08:25.156Z,45.61
2018-01-29T12:09:25.060Z,45.51
2018-01-29T12:11:17.900Z,45.25
2018-01-29T12:12:17.805Z,45.15
2018-01-29T12:14:11.172Z,45.05
2018-01-29T12:15:11.068Z,45.15
2018-01-29T12:17:03.893Z,45.03
2018-01-29T12:18:03.811Z,44.96
2018-01-29T12:19:56.671Z,45.03
2018-01-29T12:20:56.550Z,45.34
2018-01-29T12:22:49.908Z,45.25
2018-01-29T12:23:49.818Z,45.13
2018-01-29T12:25:42.681Z,44.96
2018-01-29T12:26:42.555Z,45.13
2018-01-29T12:28:35.398Z,45.61
2018-01-29T12:29:35.323Z,45.34
2018-01-29T12:31:28.219Z,45.03
2018-01-29T12:32:28.073Z,45.03
2018-01-29T12:34:20.909Z,45.34
2018-01-29T12:35:20.820Z,45.15
2018-01-29T12:37:13.673Z,45.25
2018-01-29T12:38:13.589Z,45.15
2018-01-29T12:40:06.392Z,45.15
2018-01-29T12:41:06.312Z,44.93
2018-01-29T12:42:59.369Z,45.05
2018-01-29T12:43:59.282Z,45.15
2018-01-29T12:45:52.115Z,45.15
2018-01-29T12:46:52.015Z,44.93
2018-01-29T12:48:44.875Z,44.93
2018-01-29T12:49:44.762Z,45.13
2018-01-29T12:51:37.605Z,45.25
2018-01-29T12:52:37.542Z,45.13
2018-01-29T12:54:30.364Z,45.32
2018-01-29T12:55:30.277Z,45.42
2018-01-29T12:57:23.100Z,45.42
2018-01-29T12:58:23.018Z,45.32
2018-01-29T13:00:15.869Z,45.51
2018-01-29T13:01:15.776Z,45.61
2018-01-29T13:03:08.596Z,45.22
2018-01-29T13:04:08.509Z,45.22
2018-01-29T13:06:01.614Z,44.84
2018-01-29T13:07:01.274Z,45.03
2018-01-29T13:08:54.095Z,45.13
2018-01-29T13:09:54.015Z,45.61
2018-01-29T13:11:46.858Z,45.03
2018-01-29T13:12:46.763Z,45.32
2018-01-29T13:14:39.601Z,45.22
2018-01-29T13:15:39.509Z,45.22
2018-01-29T13:17:32.355Z,45.34
2018-01-29T13:18:32.260Z,45.13
2018-01-29T13:20:25.099Z,45.32
2018-01-29T13:21:25.006Z,45.13
2018-01-29T13:23:17.857Z,44.86
2018-01-29T13:24:17.774Z,44.74
2018-01-29T13:26:10.637Z,44.84
2018-01-29T13:27:10.519Z,44.93
2018-01-29T13:29:03.356Z,45.13
2018-01-29T13:30:03.265Z,45.13
2018-01-29T13:31:56.108Z,45.13
2018-01-29T13:32:56.032Z,44.84
2018-01-29T13:34:48.874Z,44.84
2018-01-29T13:35:48.762Z,44.93
2018-01-29T13:37:41.615Z,44.76
2018-01-29T13:38:41.507Z,44.93
2018-01-29T13:40:34.615Z,44.96
2018-01-29T13:41:34.293Z,44.93
2018-01-29T13:43:27.089Z,45.15
2018-01-29T13:44:27.012Z,45.15
2018-01-29T13:46:19.870Z,45.25
2018-01-29T13:47:19.761Z,45.22
2018-01-29T13:49:12.619Z,45.25
2018-01-29T13:50:12.514Z,45.13
2018-01-29T13:52:05.373Z,44.96
2018-01-29T13:53:05.262Z,44.93
2018-01-29T13:54:58.092Z,45.03
2018-01-29T13:55:58.015Z,45.42
2018-01-29T13:57:50.873Z,45.13
2018-01-29T13:58:50.765Z,45.13
2018-01-29T14:00:43.589Z,45.13
2018-01-29T14:01:43.499Z,45.13
2018-01-29T14:03:36.358Z,45.32
2018-01-29T14:04:36.261Z,45.25
2018-01-29T14:06:29.091Z,45.05
2018-01-29T14:07:29.028Z,45.03
2018-01-29T14:09:21.963Z,45.25
2018-01-29T14:10:21.849Z,45.13
2018-01-29T14:12:14.693Z,44.93
2018-01-29T14:13:14.618Z,45.03
2018-01-29T14:15:07.462Z,44.93
2018-01-29T14:16:07.353Z,44.65
2018-01-29T14:18:00.208Z,44.65
2018-01-29T14:19:00.108Z,44.65
2018-01-29T14:20:53.564Z,44.65
2018-01-29T14:21:53.483Z,44.84
2018-01-29T14:23:46.303Z,44.84
2018-01-29T14:24:46.216Z,44.45
2018-01-29T14:26:39.078Z,44.74
2018-01-29T14:27:38.963Z,44.93
2018-01-29T14:29:31.824Z,44.74
2018-01-29T14:30:31.714Z,44.74
2018-01-29T14:32:24.578Z,44.55
2018-01-29T14:33:24.479Z,44.74
2018-01-29T14:35:17.324Z,44.65
2018-01-29T14:36:17.212Z,44.65
2018-01-29T14:38:10.066Z,44.45
2018-01-29T14:39:09.967Z,44.65
2018-01-29T14:41:02.796Z,44.74
2018-01-29T14:42:02.712Z,44.65
2018-01-29T14:43:55.566Z,44.55
2018-01-29T14:44:55.459Z,44.84
2018-01-29T14:46:48.306Z,44.55
2018-01-29T14:47:48.258Z,44.55
2018-01-29T14:49:41.098Z,44.55
2018-01-29T14:50:40.961Z,44.55
2018-01-29T14:52:33.813Z,44.84
2018-01-29T14:53:33.721Z,44.48
2018-01-29T14:55:26.589Z,44.55
2018-01-29T14:56:26.468Z,44.84
2018-01-29T14:58:19.411Z,44.55
2018-01-29T14:59:19.309Z,44.65
2018-01-29T15:01:12.187Z,44.65
2018-01-29T15:02:12.061Z,44.84
2018-01-29T15:04:04.940Z,44.55
2018-01-29T15:05:04.848Z,44.84
2018-01-29T15:06:57.688Z,44.35
2018-01-29T15:07:57.568Z,44.55
2018-01-29T15:09:50.419Z,44.74
2018-01-29T15:10:50.313Z,44.84
2018-01-29T15:12:43.165Z,44.65
2018-01-29T15:13:43.063Z,44.65
2018-01-29T15:15:35.890Z,44.65
2018-01-29T15:16:35.802Z,44.45
2018-01-29T15:18:28.653Z,44.45
2018-01-29T15:19:28.574Z,44.74
2018-01-29T15:21:21.390Z,44.74
2018-01-29T15:22:21.316Z,44.84
2018-01-29T15:24:14.165Z,44.84
2018-01-29T15:25:14.081Z,44.84
2018-01-29T15:27:06.900Z,44.65
2018-01-29T15:28:06.799Z,44.65
2018-01-29T15:29:59.655Z,44.65
2018-01-29T15:30:59.556Z,44.55
2018-01-29T15:32:52.398Z,44.65
2018-01-29T15:33:52.304Z,44.65
2018-01-29T15:35:45.166Z,44.65
2018-01-29T15:36:45.082Z,44.74
2018-01-29T15:38:37.926Z,44.65
2018-01-29T15:39:37.813Z,44.84
2018-01-29T15:41:31.210Z,44.65
2018-01-29T15:42:31.073Z,44.74
2018-01-29T15:44:23.918Z,44.65
2018-01-29T15:45:23.824Z,44.74
2018-01-29T15:47:16.689Z,44.74
2018-01-29T15:48:16.576Z,44.74
2018-01-29T15:50:09.414Z,44.65
2018-01-29T15:51:09.325Z,44.84
2018-01-29T15:53:02.173Z,44.65
2018-01-29T15:54:02.077Z,44.55
2018-01-29T15:55:54.902Z,44.74
2018-01-29T15:56:54.829Z,44.65
2018-01-29T15:58:47.677Z,44.65
2018-01-29T15:59:47.573Z,44.55
2018-01-29T16:01:40.437Z,44.65
2018-01-29T16:02:40.328Z,44.65
2018-01-29T16:04:33.182Z,44.45
2018-01-29T16:05:33.068Z,44.74
2018-01-29T16:07:25.908Z,44.55
2018-01-29T16:08:25.821Z,44.74
2018-01-29T16:10:18.681Z,44.55
2018-01-29T16:11:18.566Z,44.65
2018-01-29T16:13:11.449Z,44.74
2018-01-29T16:14:11.318Z,44.74
2018-01-29T16:16:05.194Z,44.55
2018-01-29T16:17:05.091Z,44.35
2018-01-29T16:18:57.914Z,44.45
2018-01-29T16:19:57.839Z,44.55
2018-01-29T16:21:50.700Z,44.55
2018-01-29T16:22:50.604Z,44.55
2018-01-29T16:24:43.419Z,44.55
2018-01-29T16:25:43.354Z,44.35
2018-01-29T16:27:36.200Z,44.34
2018-01-29T16:28:36.085Z,44.45
2018-01-29T16:30:28.924Z,44.45
2018-01-29T16:31:28.833Z,44.45
2018-01-29T16:33:21.697Z,44.45
2018-01-29T16:34:21.589Z,44.45
2018-01-29T16:36:14.416Z,44.35
2018-01-29T16:37:14.339Z,44.45
2018-01-29T16:39:07.207Z,44.45
2018-01-29T16:40:07.105Z,44.55
2018-01-29T16:41:59.926Z,44.55
2018-01-29T16:42:59.841Z,44.55
2018-01-29T16:44:52.706Z,44.45
2018-01-29T16:45:52.583Z,44.45
2018-01-29T16:47:45.418Z,44.35
2018-01-29T16:48:45.325Z,44.45
2018-01-29T16:50:38.187Z,44.45
2018-01-29T16:51:38.077Z,44.45
2018-01-29T16:53:30.928Z,44.35
2018-01-29T16:54:30.840Z,44.45
2018-01-29T16:56:23.694Z,44.45
2018-01-29T16:57:23.587Z,44.45
2018-01-29T16:59:16.428Z,44.35
2018-01-29T17:00:16.329Z,44.45
2018-01-29T17:02:09.381Z,44.35
2018-01-29T17:03:09.283Z,44.35
2018-01-29T17:05:02.130Z,44.35
2018-01-29T17:06:02.039Z,44.17
2018-01-29T17:07:54.881Z,44.35
2018-01-29T17:08:54.784Z,44.45
2018-01-29T17:10:47.629Z,43.88
2018-01-29T17:11:47.536Z,44.26
2018-01-29T17:13:40.385Z,44.07
2018-01-29T17:14:40.284Z,44.07
2018-01-29T17:16:33.117Z,44.07
2018-01-29T17:17:33.067Z,44.07
2018-01-29T17:19:25.835Z,44.07
2018-01-29T17:20:25.726Z,44.07
2018-01-29T17:22:18.643Z,44.07
2018-01-29T17:23:18.528Z,44.07
2018-01-29T17:25:11.410Z,44.17
2018-01-29T17:26:11.286Z,44.17
2018-01-29T17:28:04.128Z,43.88
2018-01-29T17:29:04.029Z,44.07
2018-01-29T17:30:56.884Z,44.07
2018-01-29T17:31:56.777Z,44.07
2018-01-29T17:33:49.630Z,43.97
2018-01-29T17:34:49.549Z,44.28
2018-01-29T17:36:42.406Z,43.99
2018-01-29T17:37:42.209Z,43.90
2018-01-29T17:39:35.114Z,43.88
2018-01-29T17:40:35.025Z,43.97
2018-01-29T17:42:27.906Z,44.26
2018-01-29T17:43:27.774Z,44.55
2018-01-29T17:45:20.630Z,44.55
2018-01-29T17:46:20.530Z,44.55
2018-01-29T17:48:13.388Z,44.55
2018-01-29T17:49:13.280Z,44.74
2018-01-29T17:51:06.839Z,44.65
2018-01-29T17:52:06.779Z,44.65
2018-01-29T17:53:59.586Z,44.93
2018-01-29T17:54:59.486Z,44.55
2018-01-29T17:56:52.325Z,44.65
2018-01-29T17:57:52.235Z,44.84
2018-01-29T17:59:45.161Z,44.65
2018-01-29T18:00:44.992Z,44.65
2018-01-29T18:02:37.837Z,44.74
2018-01-29T18:03:37.739Z,44.55
2018-01-29T18:05:30.608Z,44.65
2018-01-29T18:06:30.490Z,44.55
2018-01-29T18:08:23.848Z,44.74
2018-01-29T18:09:23.746Z,44.65
2018-01-29T18:11:16.595Z,44.84
2018-01-29T18:12:16.498Z,44.65
2018-01-29T18:14:09.351Z,44.55
2018-01-29T18:15:09.253Z,44.84
2018-01-29T18:17:02.213Z,44.65
2018-01-29T18:18:02.096Z,44.72
2018-01-29T18:19:54.946Z,44.91
2018-01-29T18:20:54.857Z,45.10
2018-01-29T18:22:47.827Z,45.20
2018-01-29T18:23:47.694Z,45.20
2018-01-29T18:25:40.533Z,45.49
2018-01-29T18:26:40.443Z,45.20
2018-01-29T18:28:33.307Z,45.39
2018-01-29T18:29:33.227Z,45.20
2018-01-29T18:31:26.039Z,45.20
2018-01-29T18:32:25.971Z,45.39